• Join FlightAware (Why Join?)
  • Login
  • US Flag 
12:17PM EST


 

Airport Tracker/Info


-or-


 

Live Flight TrackerFlight Track Log ✈ EGF3059 ✈ 06-May-2014 ✈ KSYR - KORD

Flight Track Log - Related Links

Times and Time Zones

All times are in EDT time to prevent confusion due to time zone crossing. See the EGF3059 flight status page for this flight to view local times or setup timezone preferences in your user account.

Time Position Orientation Groundspeed Altitude Reporting Facility
EDT Latitude Longitude Course Direction KTS MPH feet Rate Location/Type
07:01AM 43.0890 -76.5951 267° West  Level Estimated
07:02AM 43.0831 -76.7173 266° West  Level Estimated
07:03AM 43.0771 -76.8394 266° West  Level Estimated
07:04AM 43.0710 -76.9615 266° West  Level Estimated
07:05AM 43.0647 -77.0836 266° West  Level Estimated
07:06AM 43.0583 -77.2056 266° West  Level Estimated
07:07AM 43.0518 -77.3277 266° West  Level Estimated
07:08AM 43.0451 -77.4497 266° West  Level Estimated
07:09AM 43.0383 -77.5716 266° West  Level Estimated
07:10AM 43.0314 -77.6936 266° West  Level Estimated
07:11AM 43.0244 -77.8155 266° West  Level Estimated
07:12AM 43.0172 -77.9374 265° West  Level Estimated
07:13AM 43.0099 -78.0592 265° West  Level Estimated
07:14AM 43.0025 -78.1811 265° West  Level Estimated
07:15AM 42.9949 -78.3029 265° West  Level Estimated
07:16AM 42.9872 -78.4246 265° West  Level Estimated
07:17AM 42.9794 -78.5464 265° West  Level Estimated
07:18AM 42.9715 -78.6681 265° West  Level Estimated
07:19AM 42.9634 -78.7897 265° West  Level Estimated
07:20AM 42.9552 -78.9114 265° West  Level Estimated
07:21AM 42.9468 -79.0330 265° West  Level Estimated
07:22AM 42.9384 -79.1546 265° West  Level Estimated
07:23AM 42.9298 -79.2761 265° West  Level Estimated
07:24AM 42.9211 -79.3976 264° West  Level Estimated
07:25AM 42.9122 -79.5191 264° West  Level Estimated
07:26AM 42.9032 -79.6406 264° West  Level Estimated
07:27AM 42.8941 -79.7620 264° West  Level Estimated
07:28AM 42.8849 -79.8833 264° West  Level Estimated
07:29AM 42.8755 -80.0047 264° West  Level Estimated
07:30AM 42.8660 -80.1260 264° West  Level Estimated
07:31AM 42.8564 -80.2472 264° West  Level Estimated
07:32AM 42.8467 -80.3684 264° West  Level Estimated
07:33AM 42.8368 -80.4896 264° West  Level Estimated
07:34AM 42.8268 -80.6108 264° West  Level Estimated
07:35AM 42.8167 -80.7319 264° West  Level Estimated
07:36AM 42.8064 -80.8529 263° West  Level Estimated
07:37AM 42.7960 -80.9740 263° West  Level Estimated
07:38AM 42.7855 -81.0949 263° West  Level Estimated
07:39AM 42.7749 -81.2159 263° West  Level Estimated
07:40AM 42.7641 -81.3368 263° West  Level Estimated
07:41AM 42.7532 -81.4576 263° West  Level Estimated
07:42AM 42.7422 -81.5785 263° West  Level Estimated
07:43AM 42.7310 -81.6992 263° West  Level Estimated
07:44AM 42.7198 -81.8199 263° West  Level Estimated
07:45AM 42.7084 -81.9406 263° West  Level Estimated
07:46AM 42.6968 -82.0613 263° West  Level Estimated
07:47AM 42.6852 -82.1819 263° West  Level Estimated
07:48AM 42.6734 -82.3024 262° West  Level Estimated
07:49AM 42.6615 -82.4229 262° West  Level Estimated
07:50AM 42.6495 -82.5434 262° West  Level Estimated
07:51AM 42.6373 -82.6638 262° West  Level Estimated
07:52AM 42.6250 -82.7841 262° West  Level Estimated
07:53AM 42.6126 -82.9044 262° West  Level Estimated
07:54AM 42.6001 -83.0247 262° West  Level Estimated
07:55AM 42.5874 -83.1449 262° West  Level Estimated
07:56AM 42.5746 -83.2651 262° West  Level Estimated
07:57AM 42.5617 -83.3852 262° West  Level Estimated
07:58AM 42.5487 -83.5053 262° West  Level Estimated
07:59AM 42.5355 -83.6253 262° West  Level Estimated
08:00AM 42.5222 -83.7453 261° West  Level Estimated
08:01AM 42.5088 -83.8652 261° West  Level Estimated
08:02AM 42.4953 -83.9850 261° West  Level Estimated
08:03AM 42.4816 -84.1049 261° West  Level Estimated
08:04AM 42.4678 -84.2246 261° West  Level Estimated
08:05AM 42.4539 -84.3443 261° West  Level Estimated
08:06AM 42.4398 -84.4640 261° West  Level Estimated
08:07AM 42.4257 -84.5836 261° West  Level Estimated
08:08AM 42.4114 -84.7031 261° West  Level Estimated
08:09AM 42.3970 -84.8226 261° West  Level Estimated
08:10AM 42.3825 -84.9420 261° West  Level Estimated
08:11AM 42.3678 -85.0614 261° West  Level Estimated
08:12AM 42.3530 -85.1808 261° West  Level Estimated
08:13AM 42.3381 -85.3000 260° West  Level Estimated
08:14AM 42.3231 -85.4192 260° West  Level Estimated
08:15AM 42.3079 -85.5384 260° West  Level Estimated
08:16AM 42.2926 -85.6575 260° West  Level Estimated
08:17AM 42.2772 -85.7765 260° West  Level Estimated
08:18AM 42.2617 -85.8955 260° West  Level Estimated
08:19AM 42.2461 -86.0144 260° West  Level Estimated
08:20AM 42.2303 -86.1333 260° West  Level Estimated
08:21AM 42.2144 -86.2521 260° West  Level Estimated
08:22AM 42.1984 -86.3708 260° West  Level Estimated
08:23AM 42.1823 -86.4895 260° West  Level Estimated
08:24AM 42.1660 -86.6081 260° West  Level Estimated
08:25AM 42.1496 -86.7267 259° West  Level Estimated
08:26AM 42.1331 -86.8452 259° West  Level Estimated
08:27AM 42.1165 -86.9636 259° West  Level Estimated
08:28AM 42.0997 -87.0820 259° West  Level Estimated
08:29AM 42.0829 -87.2003 259° West  Level Estimated
08:30AM 42.0659 -87.3186 259° West  Level Estimated
08:31AM 42.0488 -87.4367 259° West  Level Estimated
08:32AM 42.0315 -87.5549 259° West  Level Estimated
08:33AM 42.0142 -87.6729 259° West  Level Estimated
08:34AM 41.9967 -87.7909 259° West  Level Estimated
08:35AM 41.9793 -87.9074 259° West  Level Estimated
08:36AM 41.9793 -87.9074 North  Level Estimated
08:37AM 41.9793 -87.9074 North  Level Estimated
08:38AM 41.9793 -87.9074 North  Level Estimated
08:39AM 41.9793 -87.9074 North  Level Estimated
08:40AM 41.9793 -87.9074 North  Level Estimated